sensor_id;sensor_type;location;lat;lon;timestamp;pressure;altitude;pressure_sealevel;temperature;humidity
11011;BME280;5558;42.702;23.178;2023-10-13T00:00:47;94168.84;;;10.51;100.00
11011;BME280;5558;42.702;23.178;2023-10-13T00:03:13;94164.03;;;10.43;100.00
11011;BME280;5558;42.702;23.178;2023-10-13T00:05:44;94159.72;;;10.37;100.00
11011;BME280;5558;42.702;23.178;2023-10-13T00:08:11;94129.72;;;10.27;100.00
11011;BME280;5558;42.702;23.178;2023-10-13T00:10:40;94154.81;;;10.51;100.00
11011;BME280;5558;42.702;23.178;2023-10-13T00:13:06;94155.59;;;10.46;100.00
11011;BME280;5558;42.702;23.178;2023-10-13T00:15:42;94160.19;;;10.61;100.00
11011;BME280;5558;42.702;23.178;2023-10-13T00:18:22;94158.03;;;10.26;100.00
11011;BME280;5558;42.702;23.178;2023-10-13T00:20:48;94158.88;;;10.32;100.00
11011;BME280;5558;42.702;23.178;2023-10-13T00:23:16;94157.31;;;10.36;100.00
11011;BME280;5558;42.702;23.178;2023-10-13T00:25:48;94159.75;;;10.42;100.00
11011;BME280;5558;42.702;23.178;2023-10-13T00:28:23;94158.13;;;10.36;100.00
11011;BME280;5558;42.702;23.178;2023-10-13T00:30:50;94159.22;;;10.40;100.00
11011;BME280;5558;42.702;23.178;2023-10-13T00:33:18;94162.16;;;10.44;100.00
11011;BME280;5558;42.702;23.178;2023-10-13T00:35:49;94167.44;;;10.44;100.00
11011;BME280;5558;42.702;23.178;2023-10-13T00:38:17;94165.41;;;10.51;100.00
11011;BME280;5558;42.702;23.178;2023-10-13T00:40:45;94166.16;;;10.46;100.00
11011;BME280;5558;42.702;23.178;2023-10-13T00:43:20;94166.47;;;10.50;100.00
11011;BME280;5558;42.702;23.178;2023-10-13T00:46:00;94163.63;;;10.30;100.00
11011;BME280;5558;42.702;23.178;2023-10-13T00:48:34;94155.09;;;10.23;100.00
11011;BME280;5558;42.702;23.178;2023-10-13T00:51:07;94165.34;;;10.46;100.00
11011;BME280;5558;42.702;23.178;2023-10-13T00:53:44;94169.38;;;10.48;100.00
11011;BME280;5558;42.702;23.178;2023-10-13T00:56:10;94169.09;;;10.50;100.00
11011;BME280;5558;42.702;23.178;2023-10-13T00:58:50;94167.53;;;10.54;100.00
11011;BME280;5558;42.702;23.178;2023-10-13T01:01:17;94167.44;;;10.44;100.00
11011;BME280;5558;42.702;23.178;2023-10-13T01:03:48;94169.28;;;10.38;100.00
11011;BME280;5558;42.702;23.178;2023-10-13T01:06:15;94168.41;;;10.33;100.00
11011;BME280;5558;42.702;23.178;2023-10-13T01:08:44;94157.78;;;10.28;100.00
11011;BME280;5558;42.702;23.178;2023-10-13T01:11:10;94167.97;;;10.14;100.00
11011;BME280;5558;42.702;23.178;2023-10-13T01:13:38;94159.97;;;10.09;100.00
11011;BME280;5558;42.702;23.178;2023-10-13T01:16:08;94171.50;;;10.03;100.00
11011;BME280;5558;42.702;23.178;2023-10-13T01:18:36;94168.44;;;9.89;100.00
11011;BME280;5558;42.702;23.178;2023-10-13T01:21:12;94162.06;;;9.85;100.00
11011;BME280;5558;42.702;23.178;2023-10-13T01:23:43;94162.47;;;9.77;100.00
11011;BME280;5558;42.702;23.178;2023-10-13T01:26:11;94164.16;;;9.83;100.00
11011;BME280;5558;42.702;23.178;2023-10-13T01:28:38;94161.78;;;9.60;100.00
11011;BME280;5558;42.702;23.178;2023-10-13T01:31:12;94175.81;;;9.44;100.00
11011;BME280;5558;42.702;23.178;2023-10-13T01:33:41;94176.53;;;9.18;100.00
11011;BME280;5558;42.702;23.178;2023-10-13T01:36:08;94171.03;;;9.41;100.00
11011;BME280;5558;42.702;23.178;2023-10-13T01:38:34;94176.63;;;9.45;100.00
11011;BME280;5558;42.702;23.178;2023-10-13T01:41:06;94163.03;;;9.36;100.00
11011;BME280;5558;42.702;23.178;2023-10-13T01:43:34;94175.00;;;9.44;100.00
11011;BME280;5558;42.702;23.178;2023-10-13T01:46:01;94175.69;;;9.34;100.00
11011;BME280;5558;42.702;23.178;2023-10-13T01:48:29;94180.91;;;9.29;100.00
11011;BME280;5558;42.702;23.178;2023-10-13T01:50:58;94168.13;;;9.21;100.00
11011;BME280;5558;42.702;23.178;2023-10-13T01:53:27;94175.91;;;9.11;100.00
11011;BME280;5558;42.702;23.178;2023-10-13T01:55:55;94166.13;;;8.95;100.00
11011;BME280;5558;42.702;23.178;2023-10-13T01:58:24;94168.13;;;8.88;100.00
11011;BME280;5558;42.702;23.178;2023-10-13T02:00:51;94162.13;;;8.76;100.00
11011;BME280;5558;42.702;23.178;2023-10-13T02:03:17;94156.38;;;8.96;100.00
11011;BME280;5558;42.702;23.178;2023-10-13T02:05:47;94163.16;;;9.08;100.00
11011;BME280;5558;42.702;23.178;2023-10-13T02:08:14;94160.69;;;9.18;100.00
11011;BME280;5558;42.702;23.178;2023-10-13T02:10:48;94164.09;;;9.19;100.00
11011;BME280;5558;42.702;23.178;2023-10-13T02:13:15;94164.06;;;9.35;100.00
11011;BME280;5558;42.702;23.178;2023-10-13T02:15:44;94162.66;;;9.49;100.00
11011;BME280;5558;42.702;23.178;2023-10-13T02:18:13;94162.09;;;9.47;100.00
11011;BME280;5558;42.702;23.178;2023-10-13T02:20:46;94155.91;;;9.58;100.00
11011;BME280;5558;42.702;23.178;2023-10-13T02:23:20;94162.25;;;9.57;100.00
11011;BME280;5558;42.702;23.178;2023-10-13T02:25:45;94152.97;;;9.55;100.00
11011;BME280;5558;42.702;23.178;2023-10-13T02:28:12;94166.56;;;9.63;100.00
11011;BME280;5558;42.702;23.178;2023-10-13T02:30:48;94158.50;;;9.75;100.00
11011;BME280;5558;42.702;23.178;2023-10-13T02:33:16;94150.44;;;9.86;100.00
11011;BME280;5558;42.702;23.178;2023-10-13T02:35:47;94165.50;;;9.86;100.00
11011;BME280;5558;42.702;23.178;2023-10-13T02:38:20;94168.03;;;9.98;100.00
11011;BME280;5558;42.702;23.178;2023-10-13T02:40:52;94172.81;;;10.01;100.00
11011;BME280;5558;42.702;23.178;2023-10-13T02:43:19;94172.81;;;10.01;100.00
11011;BME280;5558;42.702;23.178;2023-10-13T02:45:53;94159.78;;;9.94;100.00
11011;BME280;5558;42.702;23.178;2023-10-13T02:48:24;94177.03;;;10.02;100.00
11011;BME280;5558;42.702;23.178;2023-10-13T02:50:55;94172.88;;;9.84;100.00
11011;BME280;5558;42.702;23.178;2023-10-13T02:53:22;94170.78;;;9.86;100.00
11011;BME280;5558;42.702;23.178;2023-10-13T02:55:50;94178.28;;;9.72;100.00
11011;BME280;5558;42.702;23.178;2023-10-13T02:58:17;94173.56;;;9.74;100.00
11011;BME280;5558;42.702;23.178;2023-10-13T03:00:43;94179.22;;;9.61;100.00
11011;BME280;5558;42.702;23.178;2023-10-13T03:03:12;94176.00;;;9.38;100.00
11011;BME280;5558;42.702;23.178;2023-10-13T03:05:44;94179.69;;;9.20;100.00
11011;BME280;5558;42.702;23.178;2023-10-13T03:08:11;94187.94;;;9.24;100.00
11011;BME280;5558;42.702;23.178;2023-10-13T03:10:42;94194.97;;;9.35;100.00
11011;BME280;5558;42.702;23.178;2023-10-13T03:13:15;94184.09;;;9.31;100.00
11011;BME280;5558;42.702;23.178;2023-10-13T03:15:41;94186.19;;;9.29;100.00
11011;BME280;5558;42.702;23.178;2023-10-13T03:18:14;94191.97;;;9.48;100.00
11011;BME280;5558;42.702;23.178;2023-10-13T03:20:43;94186.75;;;9.53;100.00
11011;BME280;5558;42.702;23.178;2023-10-13T03:23:09;94184.31;;;9.46;100.00
11011;BME280;5558;42.702;23.178;2023-10-13T03:25:36;94166.16;;;9.33;100.00
11011;BME280;5558;42.702;23.178;2023-10-13T03:28:07;94179.69;;;9.20;100.00
11011;BME280;5558;42.702;23.178;2023-10-13T03:30:39;94172.66;;;9.26;100.00
11011;BME280;5558;42.702;23.178;2023-10-13T03:33:07;94174.03;;;9.12;100.00
11011;BME280;5558;42.702;23.178;2023-10-13T03:35:36;94134.53;;;9.00;100.00
11011;BME280;5558;42.702;23.178;2023-10-13T03:38:08;94172.78;;;9.36;100.00
11011;BME280;5558;42.702;23.178;2023-10-13T03:40:43;94169.91;;;9.37;100.00
11011;BME280;5558;42.702;23.178;2023-10-13T03:43:15;94160.81;;;9.28;100.00
11011;BME280;5558;42.702;23.178;2023-10-13T03:45:49;94158.31;;;9.38;100.00
11011;BME280;5558;42.702;23.178;2023-10-13T03:48:19;94151.97;;;9.39;100.00
11011;BME280;5558;42.702;23.178;2023-10-13T03:50:57;94150.63;;;9.37;100.00
11011;BME280;5558;42.702;23.178;2023-10-13T03:53:28;94105.75;;;9.20;100.00
11011;BME280;5558;42.702;23.178;2023-10-13T03:55:59;94138.56;;;9.46;100.00
11011;BME280;5558;42.702;23.178;2023-10-13T03:58:34;94139.06;;;9.43;100.00
11011;BME280;5558;42.702;23.178;2023-10-13T04:01:02;94145.94;;;9.44;100.00
11011;BME280;5558;42.702;23.178;2023-10-13T04:03:29;94145.63;;;9.40;100.00
11011;BME280;5558;42.702;23.178;2023-10-13T04:06:04;94150.84;;;9.35;100.00
11011;BME280;5558;42.702;23.178;2023-10-13T04:08:33;94154.25;;;9.31;100.00
11011;BME280;5558;42.702;23.178;2023-10-13T04:11:14;94147.63;;;9.28;100.00
11011;BME280;5558;42.702;23.178;2023-10-13T04:13:58;94144.16;;;9.28;100.00
11011;BME280;5558;42.702;23.178;2023-10-13T04:16:42;94154.16;;;9.26;100.00
11011;BME280;5558;42.702;23.178;2023-10-13T04:19:17;94141.47;;;9.23;100.00
11011;BME280;5558;42.702;23.178;2023-10-13T04:21:51;94157.06;;;9.24;100.00
11011;BME280;5558;42.702;23.178;2023-10-13T04:24:24;94154.00;;;9.32;100.00
11011;BME280;5558;42.702;23.178;2023-10-13T04:27:25;94165.03;;;9.29;100.00
11011;BME280;5558;42.702;23.178;2023-10-13T04:30:19;94166.56;;;9.25;100.00
11011;BME280;5558;42.702;23.178;2023-10-13T04:32:52;94162.94;;;9.10;100.00
11011;BME280;5558;42.702;23.178;2023-10-13T04:35:33;94170.53;;;9.06;100.00
11011;BME280;5558;42.702;23.178;2023-10-13T04:38:14;94164.63;;;8.99;100.00
11011;BME280;5558;42.702;23.178;2023-10-13T04:40:45;94169.00;;;9.10;100.00
11011;BME280;5558;42.702;23.178;2023-10-13T04:43:26;94190.81;;;9.22;100.00
11011;BME280;5558;42.702;23.178;2023-10-13T04:45:59;94193.13;;;9.35;100.00
11011;BME280;5558;42.702;23.178;2023-10-13T04:48:39;94191.25;;;9.52;100.00
11011;BME280;5558;42.702;23.178;2023-10-13T04:51:12;94186.75;;;9.74;100.00
11011;BME280;5558;42.702;23.178;2023-10-13T04:54:11;94192.97;;;10.07;100.00
11011;BME280;5558;42.702;23.178;2023-10-13T04:56:50;94199.09;;;10.34;100.00
11011;BME280;5558;42.702;23.178;2023-10-13T04:59:34;94199.16;;;10.65;100.00
11011;BME280;5558;42.702;23.178;2023-10-13T05:02:23;94198.66;;;11.00;100.00
11011;BME280;5558;42.702;23.178;2023-10-13T05:05:22;94204.44;;;11.34;100.00
11011;BME280;5558;42.702;23.178;2023-10-13T05:08:11;94216.13;;;11.74;100.00
11011;BME280;5558;42.702;23.178;2023-10-13T05:10:56;94214.75;;;12.23;100.00
11011;BME280;5558;42.702;23.178;2023-10-13T05:13:55;94215.94;;;12.93;100.00
11011;BME280;5558;42.702;23.178;2023-10-13T05:16:39;94225.25;;;13.61;100.00
11011;BME280;5558;42.702;23.178;2023-10-13T05:19:23;94221.66;;;14.15;100.00
11011;BME280;5558;42.702;23.178;2023-10-13T05:22:07;94226.28;;;14.58;100.00
11011;BME280;5558;42.702;23.178;2023-10-13T05:24:51;94238.06;;;14.96;100.00
11011;BME280;5558;42.702;23.178;2023-10-13T05:27:36;94238.84;;;15.35;100.00
11011;BME280;5558;42.702;23.178;2023-10-13T05:30:20;94233.63;;;15.82;94.09
11011;BME280;5558;42.702;23.178;2023-10-13T05:33:04;94250.97;;;16.32;88.51
11011;BME280;5558;42.702;23.178;2023-10-13T05:35:48;94246.19;;;16.95;83.68
11011;BME280;5558;42.702;23.178;2023-10-13T05:38:32;94251.81;;;17.49;78.67
11011;BME280;5558;42.702;23.178;2023-10-13T05:41:16;94254.16;;;18.15;72.00
11011;BME280;5558;42.702;23.178;2023-10-13T05:44:01;94256.47;;;18.76;67.78
11011;BME280;5558;42.702;23.178;2023-10-13T05:46:46;94252.44;;;19.50;62.70
11011;BME280;5558;42.702;23.178;2023-10-13T05:49:26;94260.47;;;19.94;60.43
11011;BME280;5558;42.702;23.178;2023-10-13T05:52:15;94256.97;;;20.94;56.10
11011;BME280;5558;42.702;23.178;2023-10-13T05:55:01;94251.31;;;21.89;52.95
11011;BME280;5558;42.702;23.178;2023-10-13T05:57:45;94245.91;;;22.61;49.64
11011;BME280;5558;42.702;23.178;2023-10-13T06:00:38;94244.91;;;23.03;48.69
11011;BME280;5558;42.702;23.178;2023-10-13T06:03:22;94249.09;;;23.62;46.46
11011;BME280;5558;42.702;23.178;2023-10-13T06:06:07;94247.94;;;24.04;44.42
11011;BME280;5558;42.702;23.178;2023-10-13T06:08:51;94248.44;;;24.31;44.02
11011;BME280;5558;42.702;23.178;2023-10-13T06:11:35;94247.53;;;24.71;42.73
11011;BME280;5558;42.702;23.178;2023-10-13T06:14:24;94246.72;;;25.19;41.95
11011;BME280;5558;42.702;23.178;2023-10-13T06:17:10;94254.16;;;25.46;41.17
11011;BME280;5558;42.702;23.178;2023-10-13T06:19:54;94250.63;;;25.58;40.48
11011;BME280;5558;42.702;23.178;2023-10-13T06:22:38;94251.59;;;25.77;38.93
11011;BME280;5558;42.702;23.178;2023-10-13T06:25:22;94262.06;;;25.51;39.04
11011;BME280;5558;42.702;23.178;2023-10-13T06:28:06;94262.06;;;25.39;39.32
11011;BME280;5558;42.702;23.178;2023-10-13T06:30:55;94265.47;;;24.88;39.68
11011;BME280;5558;42.702;23.178;2023-10-13T06:33:24;94264.75;;;24.55;40.45
11011;BME280;5558;42.702;23.178;2023-10-13T06:35:55;94273.22;;;24.21;40.96
11011;BME280;5558;42.702;23.178;2023-10-13T06:38:22;94268.72;;;23.71;42.35
11011;BME280;5558;42.702;23.178;2023-10-13T06:40:49;94274.78;;;23.27;43.57
11011;BME280;5558;42.702;23.178;2023-10-13T06:43:17;94267.84;;;22.88;44.96
11011;BME280;5558;42.702;23.178;2023-10-13T06:45:47;94268.69;;;22.26;47.73
11011;BME280;5558;42.702;23.178;2023-10-13T06:48:24;94270.97;;;21.21;53.44
11011;BME280;5558;42.702;23.178;2023-10-13T06:50:50;94272.69;;;21.09;55.00
11011;BME280;5558;42.702;23.178;2023-10-13T06:53:18;94270.03;;;20.08;58.11
11011;BME280;5558;42.702;23.178;2023-10-13T06:55:45;94268.13;;;19.56;60.67
11011;BME280;5558;42.702;23.178;2023-10-13T06:58:14;94259.44;;;19.59;63.25
11011;BME280;5558;42.702;23.178;2023-10-13T07:00:42;94254.28;;;18.78;68.73
11011;BME280;5558;42.702;23.178;2023-10-13T07:03:18;94251.69;;;18.73;70.11
11011;BME280;5558;42.702;23.178;2023-10-13T07:05:46;94252.22;;;18.61;68.82
11011;BME280;5558;42.702;23.178;2023-10-13T07:08:15;94245.56;;;18.45;70.11
11011;BME280;5558;42.702;23.178;2023-10-13T07:10:49;94247.47;;;18.45;69.88
11011;BME280;5558;42.702;23.178;2023-10-13T07:13:27;94254.16;;;18.15;73.57
11011;BME280;5558;42.702;23.178;2023-10-13T07:15:54;94261.03;;;17.75;77.18
11011;BME280;5558;42.702;23.178;2023-10-13T07:18:25;94246.66;;;17.34;82.00
11011;BME280;5558;42.702;23.178;2023-10-13T07:21:02;94263.75;;;17.20;82.84
11011;BME280;5558;42.702;23.178;2023-10-13T07:23:35;94267.50;;;17.56;81.08
11011;BME280;5558;42.702;23.178;2023-10-13T07:26:02;94256.88;;;17.83;78.78
11011;BME280;5558;42.702;23.178;2023-10-13T07:28:29;94257.63;;;18.02;77.67
11011;BME280;5558;42.702;23.178;2023-10-13T07:30:56;94260.22;;;18.20;75.24
11011;BME280;5558;42.702;23.178;2023-10-13T07:33:37;94255.47;;;18.17;74.02
11011;BME280;5558;42.702;23.178;2023-10-13T07:36:09;94256.16;;;18.09;77.00
11011;BME280;5558;42.702;23.178;2023-10-13T07:38:43;94249.25;;;17.90;77.67
11011;BME280;5558;42.702;23.178;2023-10-13T07:41:14;94243.63;;;18.18;75.92
11011;BME280;5558;42.702;23.178;2023-10-13T07:43:41;94249.25;;;18.49;74.53
11011;BME280;5558;42.702;23.178;2023-10-13T07:46:08;94240.56;;;18.79;74.20
11011;BME280;5558;42.702;23.178;2023-10-13T07:48:36;94246.94;;;18.70;70.57
11011;BME280;5558;42.702;23.178;2023-10-13T07:51:05;94245.41;;;18.91;71.46
11011;BME280;5558;42.702;23.178;2023-10-13T07:53:37;94244.50;;;19.09;70.49
11011;BME280;5558;42.702;23.178;2023-10-13T07:56:06;94215.75;;;18.74;67.50
11011;BME280;5558;42.702;23.178;2023-10-13T07:58:34;94241.34;;;18.93;69.01
11011;BME280;5558;42.702;23.178;2023-10-13T08:01:11;94250.03;;;18.63;70.47
11011;BME280;5558;42.702;23.178;2023-10-13T08:03:42;94233.97;;;18.99;68.93
11011;BME280;5558;42.702;23.178;2023-10-13T08:06:13;94237.78;;;19.20;67.60
11011;BME280;5558;42.702;23.178;2023-10-13T08:08:48;94226.56;;;19.18;68.47
11011;BME280;5558;42.702;23.178;2023-10-13T08:11:19;94246.50;;;19.39;65.62
11011;BME280;5558;42.702;23.178;2023-10-13T08:13:57;94251.94;;;19.48;67.80
11011;BME280;5558;42.702;23.178;2023-10-13T08:16:26;94242.47;;;19.50;67.82
11011;BME280;5558;42.702;23.178;2023-10-13T08:19:11;94245.16;;;19.50;65.91
11011;BME280;5558;42.702;23.178;2023-10-13T08:21:40;94255.91;;;19.72;66.69
11011;BME280;5558;42.702;23.178;2023-10-13T08:24:16;94262.44;;;19.58;68.26
11011;BME280;5558;42.702;23.178;2023-10-13T08:26:50;94257.97;;;19.31;65.38
11011;BME280;5558;42.702;23.178;2023-10-13T08:29:34;94268.28;;;19.37;66.87
11011;BME280;5558;42.702;23.178;2023-10-13T08:32:40;94255.91;;;19.72;65.46
11011;BME280;5558;42.702;23.178;2023-10-13T08:35:22;94197.97;;;19.80;63.53
11011;BME280;5558;42.702;23.178;2023-10-13T08:37:49;94250.94;;;20.40;61.19
11011;BME280;5558;42.702;23.178;2023-10-13T08:40:43;94252.59;;;20.67;58.29
11011;BME280;5558;42.702;23.178;2023-10-13T08:43:44;94250.75;;;20.76;59.55
11011;BME280;5558;42.702;23.178;2023-10-13T08:46:15;94257.25;;;20.75;58.34
11011;BME280;5558;42.702;23.178;2023-10-13T08:48:57;94259.84;;;20.49;58.01
11011;BME280;5558;42.702;23.178;2023-10-13T08:51:39;94258.97;;;20.32;59.07
11011;BME280;5558;42.702;23.178;2023-10-13T08:54:14;94255.03;;;20.38;58.99
11011;BME280;5558;42.702;23.178;2023-10-13T08:57:00;94251.94;;;20.53;57.74
11011;BME280;5558;42.702;23.178;2023-10-13T08:59:45;94248.94;;;20.54;58.04
11011;BME280;5558;42.702;23.178;2023-10-13T09:02:21;94229.31;;;20.54;57.55
11011;BME280;5558;42.702;23.178;2023-10-13T09:04:48;94241.22;;;20.62;57.76
11011;BME280;5558;42.702;23.178;2023-10-13T09:07:25;94246.94;;;20.77;57.65
11011;BME280;5558;42.702;23.178;2023-10-13T09:09:51;94246.50;;;20.92;54.98
11011;BME280;5558;42.702;23.178;2023-10-13T09:12:38;94253.66;;;20.97;54.50
11011;BME280;5558;42.702;23.178;2023-10-13T09:15:07;94249.41;;;21.13;53.81
11011;BME280;5558;42.702;23.178;2023-10-13T09:17:45;94243.72;;;21.40;53.01
11011;BME280;5558;42.702;23.178;2023-10-13T09:20:14;94242.16;;;21.56;52.70
11011;BME280;5558;42.702;23.178;2023-10-13T09:22:57;94234.81;;;21.73;50.03
11011;BME280;5558;42.702;23.178;2023-10-13T09:25:34;94230.81;;;22.14;50.08
11011;BME280;5558;42.702;23.178;2023-10-13T09:28:03;94233.53;;;22.51;47.41
11011;BME280;5558;42.702;23.178;2023-10-13T09:30:42;94241.31;;;22.90;47.57
11011;BME280;5558;42.702;23.178;2023-10-13T09:33:08;94229.94;;;23.06;45.37
11011;BME280;5558;42.702;23.178;2023-10-13T09:35:43;94226.84;;;23.16;46.41
11011;BME280;5558;42.702;23.178;2023-10-13T09:38:14;94233.97;;;23.20;45.45
11011;BME280;5558;42.702;23.178;2023-10-13T09:40:42;94225.78;;;23.37;45.29
11011;BME280;5558;42.702;23.178;2023-10-13T09:43:16;94204.53;;;22.77;44.68
11011;BME280;5558;42.702;23.178;2023-10-13T09:45:46;94215.56;;;22.93;45.19
11011;BME280;5558;42.702;23.178;2023-10-13T09:48:33;94210.16;;;22.93;46.13
11011;BME280;5558;42.702;23.178;2023-10-13T09:51:01;94220.91;;;23.02;45.22
11011;BME280;5558;42.702;23.178;2023-10-13T09:53:30;94199.75;;;22.83;43.76
11011;BME280;5558;42.702;23.178;2023-10-13T09:56:00;94219.03;;;22.73;44.75
11011;BME280;5558;42.702;23.178;2023-10-13T09:58:39;94208.03;;;22.78;43.85
11011;BME280;5558;42.702;23.178;2023-10-13T10:01:14;94210.03;;;22.89;42.84
11011;BME280;5558;42.702;23.178;2023-10-13T10:03:47;94206.56;;;23.10;42.80
11011;BME280;5558;42.702;23.178;2023-10-13T10:06:22;94199.13;;;23.27;42.63
11011;BME280;5558;42.702;23.178;2023-10-13T10:09:04;94193.84;;;23.51;42.29
11011;BME280;5558;42.702;23.178;2023-10-13T10:15:19;94205.16;;;23.24;38.48
11011;BME280;5558;42.702;23.178;2023-10-13T10:17:53;94191.16;;;23.10;39.20
11011;BME280;5558;42.702;23.178;2023-10-13T10:20:28;94190.19;;;23.35;38.87
11011;BME280;5558;42.702;23.178;2023-10-13T10:23:05;94187.56;;;23.59;39.03
11011;BME280;5558;42.702;23.178;2023-10-13T10:25:35;94186.47;;;23.60;37.79
11011;BME280;5558;42.702;23.178;2023-10-13T10:28:05;94186.03;;;23.70;37.64
11011;BME280;5558;42.702;23.178;2023-10-13T10:30:38;94175.66;;;23.93;38.54
11011;BME280;5558;42.702;23.178;2023-10-13T10:33:05;94185.56;;;24.34;38.07
11011;BME280;5558;42.702;23.178;2023-10-13T10:35:37;94189.84;;;24.59;36.95
11011;BME280;5558;42.702;23.178;2023-10-13T10:38:08;94192.47;;;24.79;37.06
11011;BME280;5558;42.702;23.178;2023-10-13T10:40:52;94190.53;;;24.80;37.68
11011;BME280;5558;42.702;23.178;2023-10-13T10:43:26;94183.91;;;24.77;36.90
11011;BME280;5558;42.702;23.178;2023-10-13T10:45:56;94178.72;;;24.72;35.66
11011;BME280;5558;42.702;23.178;2023-10-13T10:48:26;94176.09;;;24.64;35.78
11011;BME280;5558;42.702;23.178;2023-10-13T10:50:59;94174.94;;;24.65;35.98
11011;BME280;5558;42.702;23.178;2023-10-13T10:53:34;94179.47;;;24.73;35.45
11011;BME280;5558;42.702;23.178;2023-10-13T10:56:09;94177.97;;;24.39;35.62
11011;BME280;5558;42.702;23.178;2023-10-13T10:58:46;94173.34;;;24.16;35.93
11011;BME280;5558;42.702;23.178;2023-10-13T11:01:14;94172.78;;;24.34;37.63
11011;BME280;5558;42.702;23.178;2023-10-13T11:03:53;94170.78;;;24.31;36.60
11011;BME280;5558;42.702;23.178;2023-10-13T11:06:22;94169.41;;;24.37;37.18
11011;BME280;5558;42.702;23.178;2023-10-13T11:09:01;94161.28;;;24.49;36.95
11011;BME280;5558;42.702;23.178;2023-10-13T11:11:29;94159.03;;;24.63;36.95
11011;BME280;5558;42.702;23.178;2023-10-13T11:14:01;94160.88;;;24.71;36.18
11011;BME280;5558;42.702;23.178;2023-10-13T11:16:46;94161.75;;;24.63;36.30
11011;BME280;5558;42.702;23.178;2023-10-13T11:19:16;94156.56;;;24.58;36.30
11011;BME280;5558;42.702;23.178;2023-10-13T11:21:45;94150.50;;;24.73;36.44
11011;BME280;5558;42.702;23.178;2023-10-13T11:24:14;94144.72;;;24.87;36.06
11011;BME280;5558;42.702;23.178;2023-10-13T11:26:43;94152.59;;;24.92;35.12
11011;BME280;5558;42.702;23.178;2023-10-13T11:29:15;94154.53;;;24.91;34.83
11011;BME280;5558;42.702;23.178;2023-10-13T11:31:46;94144.03;;;24.78;34.85
11011;BME280;5558;42.702;23.178;2023-10-13T11:34:16;94143.16;;;24.38;35.65
11011;BME280;5558;42.702;23.178;2023-10-13T11:36:43;94140.91;;;24.52;35.00
11011;BME280;5558;42.702;23.178;2023-10-13T11:39:09;94135.59;;;24.67;35.25
11011;BME280;5558;42.702;23.178;2023-10-13T11:41:42;94139.06;;;24.92;35.30
11011;BME280;5558;42.702;23.178;2023-10-13T11:44:16;94136.53;;;25.11;34.35
11011;BME280;5558;42.702;23.178;2023-10-13T11:46:50;94136.47;;;24.83;34.55
11011;BME280;5558;42.702;23.178;2023-10-13T11:49:32;94131.06;;;24.83;33.99
11011;BME280;5558;42.702;23.178;2023-10-13T11:52:02;94125.66;;;24.83;34.31
11011;BME280;5558;42.702;23.178;2023-10-13T11:54:45;94123.63;;;24.80;34.70
11011;BME280;5558;42.702;23.178;2023-10-13T11:57:12;94122.19;;;24.71;33.77
11011;BME280;5558;42.702;23.178;2023-10-13T11:59:42;94117.75;;;24.66;34.03
11011;BME280;5558;42.702;23.178;2023-10-13T12:02:20;94116.75;;;24.59;34.09
11011;BME280;5558;42.702;23.178;2023-10-13T12:05:05;94118.78;;;24.62;34.48
11011;BME280;5558;42.702;23.178;2023-10-13T12:07:38;94115.63;;;24.60;34.32
11011;BME280;5558;42.702;23.178;2023-10-13T12:10:21;94113.13;;;24.67;35.35
11011;BME280;5558;42.702;23.178;2023-10-13T12:13:05;94119.47;;;24.71;34.06
11011;BME280;5558;42.702;23.178;2023-10-13T12:15:33;94117.19;;;24.73;34.18
11011;BME280;5558;42.702;23.178;2023-10-13T12:18:18;94111.00;;;24.72;34.31
11011;BME280;5558;42.702;23.178;2023-10-13T12:20:48;94107.03;;;24.58;35.28
11011;BME280;5558;42.702;23.178;2023-10-13T12:23:15;94103.25;;;24.71;35.21
11011;BME280;5558;42.702;23.178;2023-10-13T12:25:43;94108.53;;;24.79;35.01
11011;BME280;5558;42.702;23.178;2023-10-13T12:28:25;94102.75;;;24.93;35.09
11011;BME280;5558;42.702;23.178;2023-10-13T12:30:54;94108.09;;;25.05;34.36
11011;BME280;5558;42.702;23.178;2023-10-13T12:33:24;94101.94;;;24.92;33.82
11011;BME280;5558;42.702;23.178;2023-10-13T12:35:56;94095.94;;;24.99;33.71
11011;BME280;5558;42.702;23.178;2023-10-13T12:38:46;94090.28;;;25.04;33.58
11011;BME280;5558;42.702;23.178;2023-10-13T12:41:41;94091.13;;;24.80;34.17
11011;BME280;5558;42.702;23.178;2023-10-13T12:44:26;94090.31;;;24.92;33.59
11011;BME280;5558;42.702;23.178;2023-10-13T12:47:10;94097.31;;;24.93;32.97
11011;BME280;5558;42.702;23.178;2023-10-13T12:49:56;94097.13;;;24.74;33.18
11011;BME280;5558;42.702;23.178;2023-10-13T12:52:32;94088.66;;;24.63;35.48
11011;BME280;5558;42.702;23.178;2023-10-13T12:54:59;94087.97;;;24.54;34.48
11011;BME280;5558;42.702;23.178;2023-10-13T12:57:33;94087.97;;;24.54;34.12
11011;BME280;5558;42.702;23.178;2023-10-13T13:00:00;94090.47;;;24.71;33.77
11011;BME280;5558;42.702;23.178;2023-10-13T13:02:41;94085.38;;;24.82;33.75
11011;BME280;5558;42.702;23.178;2023-10-13T13:05:09;94085.25;;;24.66;33.29
11011;BME280;5558;42.702;23.178;2023-10-13T13:07:38;94083.34;;;24.67;34.33
11011;BME280;5558;42.702;23.178;2023-10-13T13:10:12;94083.25;;;24.51;34.27
11011;BME280;5558;42.702;23.178;2023-10-13T13:12:39;94083.72;;;24.53;34.27
11011;BME280;5558;42.702;23.178;2023-10-13T13:15:06;94079.44;;;24.40;34.76
11011;BME280;5558;42.702;23.178;2023-10-13T13:17:34;94081.22;;;24.48;34.50
11011;BME280;5558;42.702;23.178;2023-10-13T13:20:01;94073.09;;;24.60;35.79
11011;BME280;5558;42.702;23.178;2023-10-13T13:22:37;94085.72;;;24.56;34.08
11011;BME280;5558;42.702;23.178;2023-10-13T13:25:05;94080.97;;;24.65;34.37
11011;BME280;5558;42.702;23.178;2023-10-13T13:27:34;94074.44;;;24.66;33.95
11011;BME280;5558;42.702;23.178;2023-10-13T13:30:02;94046.63;;;24.30;33.75
11011;BME280;5558;42.702;23.178;2023-10-13T13:32:37;94075.34;;;24.58;34.16
11011;BME280;5558;42.702;23.178;2023-10-13T13:35:06;94076.03;;;24.55;33.93
11011;BME280;5558;42.702;23.178;2023-10-13T13:37:40;94075.00;;;24.72;34.11